Thursday, October 23, 2014
20:39 UTC
  |  Log In   |  Register Free
Airport Search:

Orlando Sanford International Airport
(KSFB)

FAA data valid effective September 18, 2014 - November 13, 2014 (unless otherwise noted).

 
 
 
 
 
 
 
 
 
 
 
 
 
 

Current Aviation Weather for Orlando Sanford International Airport (KSFB)

The most recent METAR observation for KSFB was updated at: 2018
METAR Summary (Translated METAR)
KSFB
231953Z 04010KT 10SM FEW049 26/13 A2995 RMK AO2 SLP140 T02610133
KORL
231953Z 05009KT 10SM CLR 27/13 A2994 RMK AO2 SLP142 T02670128
(14.8 nm SW from KSFB)
KDED
231955Z AUTO 03007KT 10SM CLR 24/12 A2997 RMK AO1
(17.6 nm NW from KSFB)
TAF Summary (Translated TAF)
KSFB
231729Z 2318/2418 VRB06KT P6SM FEW250 FM240400 02005KT P6SM FEW250 FM241400 04008KT P6SM FEW035
  Airport Weather Conditions for KSFB

 Current Weather at SFB
79° F
A Few Clouds
Northeast winds at 11.5 mph
SFB NOAA Radar

Pressure: 29.95 in
Humidity: 45%
Wind: Northeast at 11.5 MPH (10 KT)
Dew Point: 55.9°F
Visibility: 10.00 mi


Airport Weather Forecast for KSFB

Translated METAR and TAF for KSFB
Translated METAR for KSFB (2034 UTC 23 October 2014)
found at http://aviationweather.gov/adds/metars/
 
METAR text: KSFB 231953Z 04010KT 10SM FEW049 26/13 A2995 RMK AO2 SLP140 T02610133
Conditions at: KSFB (SANFORD/ORLANDO , FL, US) observed 1953 UTC 23 October 2014
Temperature: 26.1°C (79°F)
Dewpoint: 13.3°C (56°F) [RH = 45%]
Pressure (altimeter): 29.95 inches Hg (1014.3 mb)
[Sea-level pressure: 1014.0 mb]
Winds: from the NE (40 degrees) at 12 MPH (10 knots; 5.2 m/s)
Visibility: 10 or more miles (16+ km)
Ceiling: at least 12,000 feet AGL
Clouds: few clouds at 4900 feet AGL
Weather: no significant weather observed at this time
Translated TAF for KSFB
Forecast for: KSFB (SANFORD/ORLANDO , FL, US)
TAF Text: KSFB 231729Z 2318/2418 VRB06KT P6SM FEW250
Forecast period: 1800 UTC 23 October 2014 to 0400 UTC 24 October 2014
Forecast type: FROM: standard forecast or significant change
Winds: variable direction winds at 7 MPH (6 knots; 3.1 m/s)
Visibility: 6 or more miles (10+ km)
Clouds: few clouds at 25000 feet AGL
Weather: no significant weather forecast for this period
TAF Text: FM240400 02005KT P6SM FEW250
Forecast period: 0400 to 1400 UTC 24 October 2014
Forecast type: FROM: standard forecast or significant change
Winds: from the NNE (20 degrees) at 6 MPH (5 knots; 2.6 m/s)
Visibility: 6 or more miles (10+ km)
Clouds: few clouds at 25000 feet AGL
Weather: no significant weather forecast for this period
TAF Text: FM241400 04008KT P6SM FEW035
Forecast period: 1400 to 1800 UTC 24 October 2014
Forecast type: FROM: standard forecast or significant change
Winds: from the NE (40 degrees) at 9 MPH (8 knots; 4.2 m/s)
Visibility: 6 or more miles (10+ km)
Clouds: few clouds at 3500 feet AGL
Weather: no significant weather forecast for this period

Find All Airport Services Find A Hotel Find A Rental Car Find A Golf Course Find A Restaurant $100 Hamburger



FBO's on the Field
FBO Company Facility Photos Services Transportation Aviation Fuel Prices: Prices include tax
Catering Weather Repair Courtesy Rental Type 100LL JetA JetA+ MOGAS 8087
 
StarPort

StarPort logo
Currently rated 3.8 by 7 people
FS:
Last Updated: Oct-20
Login to update fuel prices
SS:
Contact StarPortMore FBO Information
 
Million Air Sanford

Currently rated 3.6 by 3 people
FS:Avfuel
Last Updated: Oct-13
Login to update fuel prices
SS:
Contact Million Air SanfordMore FBO Information
 
Add another FBO Facility Photos Catering Weather Repair Courtesy Rental Type 100LL JetA JetA+ MOGAS 8087
Services Transportation Aviation Fuel Prices: Prices include tax


model-print
model-print
model-print
model-print